sensor_id;sensor_type;location;lat;lon;timestamp;P1;durP1;ratioP1;P2;durP2;ratioP2
69126;SDS011;56688;50.234;19.292;2022-12-18T00:00:59;48.90;;;17.60;;
69126;SDS011;56688;50.234;19.292;2022-12-18T00:03:26;49.30;;;16.70;;
69126;SDS011;56688;50.234;19.292;2022-12-18T00:05:53;54.50;;;19.90;;
69126;SDS011;56688;50.234;19.292;2022-12-18T00:08:20;49.70;;;19.50;;
69126;SDS011;56688;50.234;19.292;2022-12-18T00:10:47;55.50;;;20.40;;
69126;SDS011;56688;50.234;19.292;2022-12-18T00:13:13;59.60;;;20.40;;
69126;SDS011;56688;50.234;19.292;2022-12-18T00:15:40;51.40;;;20.20;;
69126;SDS011;56688;50.234;19.292;2022-12-18T00:18:07;48.00;;;19.40;;
69126;SDS011;56688;50.234;19.292;2022-12-18T00:20:36;55.20;;;20.50;;
69126;SDS011;56688;50.234;19.292;2022-12-18T00:23:05;60.60;;;21.20;;
69126;SDS011;56688;50.234;19.292;2022-12-18T00:25:33;43.90;;;17.50;;
69126;SDS011;56688;50.234;19.292;2022-12-18T00:28:02;54.20;;;19.80;;
69126;SDS011;56688;50.234;19.292;2022-12-18T00:30:29;50.30;;;18.60;;
69126;SDS011;56688;50.234;19.292;2022-12-18T00:32:57;54.50;;;18.80;;
69126;SDS011;56688;50.234;19.292;2022-12-18T00:35:24;49.80;;;19.00;;
69126;SDS011;56688;50.234;19.292;2022-12-18T00:37:51;51.30;;;19.20;;
69126;SDS011;56688;50.234;19.292;2022-12-18T00:40:18;53.40;;;19.70;;
69126;SDS011;56688;50.234;19.292;2022-12-18T00:42:45;56.60;;;19.80;;
69126;SDS011;56688;50.234;19.292;2022-12-18T00:45:29;47.90;;;19.00;;
69126;SDS011;56688;50.234;19.292;2022-12-18T00:47:57;50.50;;;20.30;;
69126;SDS011;56688;50.234;19.292;2022-12-18T00:50:24;56.30;;;20.70;;
69126;SDS011;56688;50.234;19.292;2022-12-18T00:52:52;55.50;;;19.50;;
69126;SDS011;56688;50.234;19.292;2022-12-18T00:55:19;56.20;;;19.80;;
69126;SDS011;56688;50.234;19.292;2022-12-18T00:57:45;49.30;;;18.70;;
69126;SDS011;56688;50.234;19.292;2022-12-18T01:00:13;43.40;;;17.90;;
69126;SDS011;56688;50.234;19.292;2022-12-18T01:02:41;54.50;;;18.60;;
69126;SDS011;56688;50.234;19.292;2022-12-18T01:05:09;56.40;;;20.10;;
69126;SDS011;56688;50.234;19.292;2022-12-18T01:07:37;52.50;;;18.90;;
69126;SDS011;56688;50.234;19.292;2022-12-18T01:10:04;52.80;;;18.20;;
69126;SDS011;56688;50.234;19.292;2022-12-18T01:12:34;43.80;;;16.00;;
69126;SDS011;56688;50.234;19.292;2022-12-18T01:15:01;48.00;;;17.70;;
69126;SDS011;56688;50.234;19.292;2022-12-18T01:17:28;48.90;;;17.20;;
69126;SDS011;56688;50.234;19.292;2022-12-18T01:19:55;116.80;;;36.30;;
69126;SDS011;56688;50.234;19.292;2022-12-18T01:22:21;107.40;;;34.90;;
69126;SDS011;56688;50.234;19.292;2022-12-18T01:24:48;65.90;;;23.40;;
69126;SDS011;56688;50.234;19.292;2022-12-18T01:27:15;45.90;;;17.60;;
69126;SDS011;56688;50.234;19.292;2022-12-18T01:29:42;46.40;;;16.40;;
69126;SDS011;56688;50.234;19.292;2022-12-18T01:32:09;81.40;;;27.90;;
69126;SDS011;56688;50.234;19.292;2022-12-18T01:34:36;55.60;;;21.00;;
69126;SDS011;56688;50.234;19.292;2022-12-18T01:37:04;61.60;;;21.10;;
69126;SDS011;56688;50.234;19.292;2022-12-18T01:39:32;87.60;;;29.00;;
69126;SDS011;56688;50.234;19.292;2022-12-18T01:42:00;66.70;;;23.00;;
69126;SDS011;56688;50.234;19.292;2022-12-18T01:47:23;50.90;;;18.10;;
69126;SDS011;56688;50.234;19.292;2022-12-18T01:49:54;49.90;;;17.90;;
69126;SDS011;56688;50.234;19.292;2022-12-18T01:52:22;50.00;;;19.10;;
69126;SDS011;56688;50.234;19.292;2022-12-18T01:54:52;56.70;;;20.60;;
69126;SDS011;56688;50.234;19.292;2022-12-18T01:57:19;62.20;;;24.00;;
69126;SDS011;56688;50.234;19.292;2022-12-18T01:59:47;46.30;;;18.20;;
69126;SDS011;56688;50.234;19.292;2022-12-18T02:02:20;52.80;;;18.80;;
69126;SDS011;56688;50.234;19.292;2022-12-18T02:04:47;48.80;;;18.50;;
69126;SDS011;56688;50.234;19.292;2022-12-18T02:10:09;47.50;;;19.10;;
69126;SDS011;56688;50.234;19.292;2022-12-18T02:17:54;47.60;;;16.40;;
69126;SDS011;56688;50.234;19.292;2022-12-18T02:28:36;43.00;;;16.60;;
69126;SDS011;56688;50.234;19.292;2022-12-18T02:31:14;46.30;;;16.80;;
69126;SDS011;56688;50.234;19.292;2022-12-18T02:34:02;47.50;;;18.00;;
69126;SDS011;56688;50.234;19.292;2022-12-18T02:36:36;50.80;;;17.00;;
69126;SDS011;56688;50.234;19.292;2022-12-18T02:39:07;45.50;;;17.00;;
69126;SDS011;56688;50.234;19.292;2022-12-18T02:41:41;46.50;;;17.50;;
69126;SDS011;56688;50.234;19.292;2022-12-18T02:44:10;45.50;;;16.50;;
69126;SDS011;56688;50.234;19.292;2022-12-18T02:54:52;50.90;;;16.90;;
69126;SDS011;56688;50.234;19.292;2022-12-18T03:00:14;44.80;;;16.40;;
69126;SDS011;56688;50.234;19.292;2022-12-18T03:10:26;49.20;;;16.90;;
69126;SDS011;56688;50.234;19.292;2022-12-18T03:13:02;53.90;;;17.30;;
69126;SDS011;56688;50.234;19.292;2022-12-18T03:15:35;54.70;;;17.60;;
69126;SDS011;56688;50.234;19.292;2022-12-18T03:18:11;52.10;;;18.10;;
69126;SDS011;56688;50.234;19.292;2022-12-18T03:20:43;52.40;;;18.50;;
69126;SDS011;56688;50.234;19.292;2022-12-18T03:23:15;51.20;;;19.20;;
69126;SDS011;56688;50.234;19.292;2022-12-18T03:25:52;45.80;;;17.50;;
69126;SDS011;56688;50.234;19.292;2022-12-18T03:28:23;57.20;;;19.30;;
69126;SDS011;56688;50.234;19.292;2022-12-18T03:30:56;49.90;;;18.40;;
69126;SDS011;56688;50.234;19.292;2022-12-18T03:33:28;46.00;;;17.00;;
69126;SDS011;56688;50.234;19.292;2022-12-18T03:38:27;42.00;;;14.30;;
69126;SDS011;56688;50.234;19.292;2022-12-18T03:46:26;44.30;;;16.20;;
69126;SDS011;56688;50.234;19.292;2022-12-18T03:49:01;49.20;;;17.70;;
69126;SDS011;56688;50.234;19.292;2022-12-18T03:51:37;47.80;;;17.30;;
69126;SDS011;56688;50.234;19.292;2022-12-18T03:54:13;45.70;;;17.10;;
69126;SDS011;56688;50.234;19.292;2022-12-18T03:56:49;48.80;;;18.00;;
69126;SDS011;56688;50.234;19.292;2022-12-18T03:59:25;45.90;;;17.40;;
69126;SDS011;56688;50.234;19.292;2022-12-18T04:01:55;50.20;;;18.00;;
69126;SDS011;56688;50.234;19.292;2022-12-18T04:04:26;48.90;;;16.90;;
69126;SDS011;56688;50.234;19.292;2022-12-18T04:06:58;52.80;;;19.00;;
69126;SDS011;56688;50.234;19.292;2022-12-18T04:09:25;45.50;;;17.30;;
69126;SDS011;56688;50.234;19.292;2022-12-18T04:11:53;51.40;;;18.70;;
69126;SDS011;56688;50.234;19.292;2022-12-18T04:14:21;52.50;;;18.70;;
69126;SDS011;56688;50.234;19.292;2022-12-18T04:16:50;45.60;;;16.20;;
69126;SDS011;56688;50.234;19.292;2022-12-18T04:19:20;50.60;;;18.20;;
69126;SDS011;56688;50.234;19.292;2022-12-18T04:21:47;50.60;;;17.80;;
69126;SDS011;56688;50.234;19.292;2022-12-18T04:24:14;44.70;;;17.00;;
69126;SDS011;56688;50.234;19.292;2022-12-18T04:26:48;49.80;;;17.80;;
69126;SDS011;56688;50.234;19.292;2022-12-18T04:29:17;56.80;;;19.30;;
69126;SDS011;56688;50.234;19.292;2022-12-18T04:31:44;48.10;;;17.20;;
69126;SDS011;56688;50.234;19.292;2022-12-18T04:34:11;52.70;;;19.60;;
69126;SDS011;56688;50.234;19.292;2022-12-18T04:36:43;49.90;;;18.60;;
69126;SDS011;56688;50.234;19.292;2022-12-18T04:39:10;43.60;;;16.10;;
69126;SDS011;56688;50.234;19.292;2022-12-18T04:41:36;51.00;;;17.20;;
69126;SDS011;56688;50.234;19.292;2022-12-18T04:44:03;48.10;;;16.60;;
69126;SDS011;56688;50.234;19.292;2022-12-18T04:46:30;55.80;;;19.10;;
69126;SDS011;56688;50.234;19.292;2022-12-18T04:48:57;55.00;;;19.20;;
69126;SDS011;56688;50.234;19.292;2022-12-18T04:51:24;59.00;;;19.70;;
69126;SDS011;56688;50.234;19.292;2022-12-18T04:53:52;50.70;;;18.00;;
69126;SDS011;56688;50.234;19.292;2022-12-18T04:56:20;61.40;;;19.40;;
69126;SDS011;56688;50.234;19.292;2022-12-18T04:58:47;55.00;;;19.30;;
69126;SDS011;56688;50.234;19.292;2022-12-18T05:01:14;46.20;;;17.40;;
69126;SDS011;56688;50.234;19.292;2022-12-18T05:03:43;53.90;;;19.30;;
69126;SDS011;56688;50.234;19.292;2022-12-18T05:06:11;47.40;;;17.80;;
69126;SDS011;56688;50.234;19.292;2022-12-18T05:08:38;53.10;;;20.20;;
69126;SDS011;56688;50.234;19.292;2022-12-18T05:11:05;53.70;;;19.00;;
69126;SDS011;56688;50.234;19.292;2022-12-18T05:13:34;59.20;;;19.90;;
69126;SDS011;56688;50.234;19.292;2022-12-18T05:16:02;59.00;;;19.10;;
69126;SDS011;56688;50.234;19.292;2022-12-18T05:18:29;55.50;;;19.50;;
69126;SDS011;56688;50.234;19.292;2022-12-18T05:20:56;55.10;;;19.50;;
69126;SDS011;56688;50.234;19.292;2022-12-18T05:23:23;55.70;;;20.60;;
69126;SDS011;56688;50.234;19.292;2022-12-18T05:25:54;56.00;;;19.70;;
69126;SDS011;56688;50.234;19.292;2022-12-18T05:28:23;45.30;;;17.00;;
69126;SDS011;56688;50.234;19.292;2022-12-18T05:30:52;50.40;;;17.40;;
69126;SDS011;56688;50.234;19.292;2022-12-18T05:33:21;52.50;;;18.30;;
69126;SDS011;56688;50.234;19.292;2022-12-18T05:38:49;49.20;;;17.70;;
69126;SDS011;56688;50.234;19.292;2022-12-18T05:41:16;55.90;;;17.50;;
69126;SDS011;56688;50.234;19.292;2022-12-18T05:43:42;53.80;;;17.80;;
69126;SDS011;56688;50.234;19.292;2022-12-18T05:46:12;57.20;;;19.20;;
69126;SDS011;56688;50.234;19.292;2022-12-18T05:48:41;57.80;;;20.10;;
69126;SDS011;56688;50.234;19.292;2022-12-18T05:51:23;52.90;;;20.10;;
69126;SDS011;56688;50.234;19.292;2022-12-18T05:53:50;63.40;;;20.40;;
69126;SDS011;56688;50.234;19.292;2022-12-18T05:56:18;52.60;;;19.40;;
69126;SDS011;56688;50.234;19.292;2022-12-18T05:58:50;57.80;;;20.00;;
69126;SDS011;56688;50.234;19.292;2022-12-18T06:01:19;60.70;;;20.10;;
69126;SDS011;56688;50.234;19.292;2022-12-18T06:03:49;62.00;;;20.60;;
69126;SDS011;56688;50.234;19.292;2022-12-18T06:06:18;65.00;;;20.20;;
69126;SDS011;56688;50.234;19.292;2022-12-18T06:08:46;68.10;;;21.40;;
69126;SDS011;56688;50.234;19.292;2022-12-18T06:11:16;58.50;;;19.20;;
69126;SDS011;56688;50.234;19.292;2022-12-18T06:13:45;64.80;;;22.10;;
69126;SDS011;56688;50.234;19.292;2022-12-18T06:16:12;67.60;;;21.30;;
69126;SDS011;56688;50.234;19.292;2022-12-18T06:18:39;58.50;;;21.40;;
69126;SDS011;56688;50.234;19.292;2022-12-18T06:21:06;51.80;;;19.60;;
69126;SDS011;56688;50.234;19.292;2022-12-18T06:23:33;58.00;;;20.50;;
69126;SDS011;56688;50.234;19.292;2022-12-18T06:26:08;46.10;;;16.40;;
69126;SDS011;56688;50.234;19.292;2022-12-18T06:28:36;50.30;;;16.50;;
69126;SDS011;56688;50.234;19.292;2022-12-18T06:31:03;59.50;;;21.90;;
69126;SDS011;56688;50.234;19.292;2022-12-18T06:33:31;47.10;;;15.60;;
69126;SDS011;56688;50.234;19.292;2022-12-18T06:36:00;65.20;;;20.60;;
69126;SDS011;56688;50.234;19.292;2022-12-18T06:38:30;67.00;;;22.40;;
69126;SDS011;56688;50.234;19.292;2022-12-18T06:40:58;64.80;;;20.30;;
69126;SDS011;56688;50.234;19.292;2022-12-18T06:43:25;66.20;;;22.60;;
69126;SDS011;56688;50.234;19.292;2022-12-18T06:45:57;59.60;;;21.00;;
69126;SDS011;56688;50.234;19.292;2022-12-18T06:48:25;59.60;;;22.10;;
69126;SDS011;56688;50.234;19.292;2022-12-18T06:50:52;60.30;;;20.90;;
69126;SDS011;56688;50.234;19.292;2022-12-18T06:53:19;61.90;;;22.60;;
69126;SDS011;56688;50.234;19.292;2022-12-18T06:55:46;63.70;;;21.10;;
69126;SDS011;56688;50.234;19.292;2022-12-18T06:58:13;67.80;;;21.60;;
69126;SDS011;56688;50.234;19.292;2022-12-18T07:00:39;55.20;;;19.80;;
69126;SDS011;56688;50.234;19.292;2022-12-18T07:03:07;60.00;;;21.90;;
69126;SDS011;56688;50.234;19.292;2022-12-18T07:05:34;64.90;;;21.80;;
69126;SDS011;56688;50.234;19.292;2022-12-18T07:08:06;66.70;;;21.20;;
69126;SDS011;56688;50.234;19.292;2022-12-18T07:10:33;57.80;;;20.50;;
69126;SDS011;56688;50.234;19.292;2022-12-18T07:13:00;58.60;;;21.10;;
69126;SDS011;56688;50.234;19.292;2022-12-18T07:15:26;60.40;;;22.10;;
69126;SDS011;56688;50.234;19.292;2022-12-18T07:17:53;56.60;;;20.70;;
69126;SDS011;56688;50.234;19.292;2022-12-18T07:20:21;57.50;;;20.30;;
69126;SDS011;56688;50.234;19.292;2022-12-18T07:22:48;63.80;;;21.60;;
69126;SDS011;56688;50.234;19.292;2022-12-18T07:25:21;63.00;;;21.00;;
69126;SDS011;56688;50.234;19.292;2022-12-18T07:27:48;57.80;;;21.50;;
69126;SDS011;56688;50.234;19.292;2022-12-18T07:30:15;60.50;;;21.20;;
69126;SDS011;56688;50.234;19.292;2022-12-18T07:32:42;64.70;;;22.30;;
69126;SDS011;56688;50.234;19.292;2022-12-18T07:35:09;54.80;;;19.80;;
69126;SDS011;56688;50.234;19.292;2022-12-18T07:37:35;60.00;;;21.70;;
69126;SDS011;56688;50.234;19.292;2022-12-18T07:40:02;60.90;;;20.90;;
69126;SDS011;56688;50.234;19.292;2022-12-18T07:42:29;70.80;;;23.90;;
69126;SDS011;56688;50.234;19.292;2022-12-18T07:44:57;61.30;;;22.70;;
69126;SDS011;56688;50.234;19.292;2022-12-18T07:47:25;62.60;;;22.60;;
69126;SDS011;56688;50.234;19.292;2022-12-18T07:49:52;62.80;;;23.70;;
69126;SDS011;56688;50.234;19.292;2022-12-18T07:52:19;62.90;;;24.00;;
69126;SDS011;56688;50.234;19.292;2022-12-18T07:54:51;59.30;;;22.90;;
69126;SDS011;56688;50.234;19.292;2022-12-18T07:57:18;63.00;;;24.10;;
69126;SDS011;56688;50.234;19.292;2022-12-18T08:00:05;68.90;;;24.60;;
69126;SDS011;56688;50.234;19.292;2022-12-18T08:02:37;47.30;;;19.70;;
69126;SDS011;56688;50.234;19.292;2022-12-18T08:05:04;59.70;;;19.10;;
69126;SDS011;56688;50.234;19.292;2022-12-18T08:07:32;66.00;;;24.10;;
69126;SDS011;56688;50.234;19.292;2022-12-18T08:09:59;70.00;;;25.00;;
69126;SDS011;56688;50.234;19.292;2022-12-18T08:12:25;75.90;;;26.80;;
69126;SDS011;56688;50.234;19.292;2022-12-18T08:14:52;66.70;;;25.10;;
69126;SDS011;56688;50.234;19.292;2022-12-18T08:17:19;53.90;;;20.00;;
69126;SDS011;56688;50.234;19.292;2022-12-18T08:19:46;51.80;;;18.50;;
69126;SDS011;56688;50.234;19.292;2022-12-18T08:22:13;56.80;;;21.80;;
69126;SDS011;56688;50.234;19.292;2022-12-18T08:24:40;55.20;;;19.50;;
69126;SDS011;56688;50.234;19.292;2022-12-18T08:27:07;72.40;;;24.40;;
69126;SDS011;56688;50.234;19.292;2022-12-18T08:29:53;65.10;;;23.40;;
69126;SDS011;56688;50.234;19.292;2022-12-18T08:32:20;107.70;;;41.40;;
69126;SDS011;56688;50.234;19.292;2022-12-18T08:34:47;122.40;;;41.70;;
69126;SDS011;56688;50.234;19.292;2022-12-18T08:37:14;74.50;;;28.00;;
69126;SDS011;56688;50.234;19.292;2022-12-18T08:39:41;73.50;;;25.50;;
69126;SDS011;56688;50.234;19.292;2022-12-18T08:42:07;72.20;;;25.90;;
69126;SDS011;56688;50.234;19.292;2022-12-18T08:44:49;66.00;;;22.90;;
69126;SDS011;56688;50.234;19.292;2022-12-18T08:47:16;74.00;;;26.40;;
69126;SDS011;56688;50.234;19.292;2022-12-18T08:49:43;65.10;;;24.10;;
69126;SDS011;56688;50.234;19.292;2022-12-18T08:52:09;73.50;;;26.80;;
69126;SDS011;56688;50.234;19.292;2022-12-18T08:54:37;74.50;;;28.00;;
69126;SDS011;56688;50.234;19.292;2022-12-18T08:57:04;76.50;;;28.40;;
69126;SDS011;56688;50.234;19.292;2022-12-18T08:59:30;74.20;;;27.50;;
69126;SDS011;56688;50.234;19.292;2022-12-18T09:01:57;72.10;;;27.30;;
69126;SDS011;56688;50.234;19.292;2022-12-18T09:04:40;71.00;;;27.20;;
69126;SDS011;56688;50.234;19.292;2022-12-18T09:07:07;76.00;;;28.60;;
69126;SDS011;56688;50.234;19.292;2022-12-18T09:09:33;74.70;;;28.20;;
69126;SDS011;56688;50.234;19.292;2022-12-18T09:12:00;74.70;;;28.40;;
69126;SDS011;56688;50.234;19.292;2022-12-18T09:14:27;56.90;;;22.50;;
69126;SDS011;56688;50.234;19.292;2022-12-18T09:16:54;63.40;;;25.30;;
69126;SDS011;56688;50.234;19.292;2022-12-18T09:19:21;72.50;;;27.60;;
69126;SDS011;56688;50.234;19.292;2022-12-18T09:21:48;65.50;;;26.10;;
69126;SDS011;56688;50.234;19.292;2022-12-18T09:24:15;70.40;;;27.50;;
69126;SDS011;56688;50.234;19.292;2022-12-18T09:26:42;72.90;;;27.20;;
69126;SDS011;56688;50.234;19.292;2022-12-18T09:29:13;83.20;;;32.10;;
69126;SDS011;56688;50.234;19.292;2022-12-18T09:31:42;77.80;;;28.40;;
69126;SDS011;56688;50.234;19.292;2022-12-18T09:34:08;70.70;;;27.80;;
69126;SDS011;56688;50.234;19.292;2022-12-18T09:36:35;70.80;;;28.20;;
69126;SDS011;56688;50.234;19.292;2022-12-18T09:39:02;71.30;;;29.10;;
69126;SDS011;56688;50.234;19.292;2022-12-18T09:46:52;66.60;;;29.10;;
69126;SDS011;56688;50.234;19.292;2022-12-18T09:49:25;68.90;;;28.70;;
69126;SDS011;56688;50.234;19.292;2022-12-18T09:54:31;72.30;;;28.20;;
69126;SDS011;56688;50.234;19.292;2022-12-18T09:57:04;70.20;;;26.90;;
69126;SDS011;56688;50.234;19.292;2022-12-18T09:59:35;73.40;;;27.00;;
69126;SDS011;56688;50.234;19.292;2022-12-18T10:04:52;60.30;;;22.90;;
69126;SDS011;56688;50.234;19.292;2022-12-18T10:07:38;63.50;;;22.10;;
69126;SDS011;56688;50.234;19.292;2022-12-18T10:10:13;62.50;;;23.00;;
69126;SDS011;56688;50.234;19.292;2022-12-18T10:12:53;64.50;;;25.00;;
69126;SDS011;56688;50.234;19.292;2022-12-18T10:29:49;43.40;;;17.00;;
69126;SDS011;56688;50.234;19.292;2022-12-18T10:32:18;42.70;;;16.70;;
69126;SDS011;56688;50.234;19.292;2022-12-18T10:34:48;45.00;;;16.20;;
69126;SDS011;56688;50.234;19.292;2022-12-18T10:37:25;36.40;;;15.90;;
69126;SDS011;56688;50.234;19.292;2022-12-18T10:42:57;33.80;;;14.30;;
69126;SDS011;56688;50.234;19.292;2022-12-18T10:45:32;36.80;;;14.10;;
69126;SDS011;56688;50.234;19.292;2022-12-18T10:47:58;36.80;;;16.60;;
69126;SDS011;56688;50.234;19.292;2022-12-18T10:50:29;39.70;;;16.20;;
69126;SDS011;56688;50.234;19.292;2022-12-18T10:53:20;39.00;;;16.20;;
69126;SDS011;56688;50.234;19.292;2022-12-18T10:55:51;44.90;;;17.70;;
69126;SDS011;56688;50.234;19.292;2022-12-18T10:58:23;40.80;;;17.10;;
69126;SDS011;56688;50.234;19.292;2022-12-18T11:03:39;29.60;;;13.00;;
69126;SDS011;56688;50.234;19.292;2022-12-18T11:06:25;42.10;;;17.40;;
69126;SDS011;56688;50.234;19.292;2022-12-18T11:11:50;33.90;;;14.40;;
69126;SDS011;56688;50.234;19.292;2022-12-18T11:14:21;45.60;;;17.20;;
69126;SDS011;56688;50.234;19.292;2022-12-18T11:16:50;51.10;;;20.20;;
69126;SDS011;56688;50.234;19.292;2022-12-18T11:19:39;52.10;;;19.90;;
69126;SDS011;56688;50.234;19.292;2022-12-18T11:27:49;41.20;;;17.10;;
69126;SDS011;56688;50.234;19.292;2022-12-18T11:32:47;32.00;;;13.00;;
69126;SDS011;56688;50.234;19.292;2022-12-18T11:35:21;47.20;;;18.20;;
69126;SDS011;56688;50.234;19.292;2022-12-18T11:37:57;39.10;;;16.10;;
69126;SDS011;56688;50.234;19.292;2022-12-18T11:40:35;34.60;;;13.80;;
69126;SDS011;56688;50.234;19.292;2022-12-18T11:43:09;42.70;;;16.30;;
69126;SDS011;56688;50.234;19.292;2022-12-18T11:45:43;36.50;;;15.80;;
69126;SDS011;56688;50.234;19.292;2022-12-18T11:48:17;40.60;;;15.70;;
69126;SDS011;56688;50.234;19.292;2022-12-18T11:53:19;41.00;;;15.60;;
69126;SDS011;56688;50.234;19.292;2022-12-18T12:09:21;35.60;;;15.60;;
69126;SDS011;56688;50.234;19.292;2022-12-18T12:28:14;41.40;;;18.70;;
69126;SDS011;56688;50.234;19.292;2022-12-18T12:35:55;46.00;;;21.00;;
69126;SDS011;56688;50.234;19.292;2022-12-18T12:38:34;42.80;;;20.60;;
69126;SDS011;56688;50.234;19.292;2022-12-18T12:41:17;44.50;;;21.70;;
69126;SDS011;56688;50.234;19.292;2022-12-18T12:44:03;40.30;;;20.10;;
69126;SDS011;56688;50.234;19.292;2022-12-18T12:46:36;43.40;;;20.10;;
69126;SDS011;56688;50.234;19.292;2022-12-18T12:49:09;44.10;;;19.50;;
69126;SDS011;56688;50.234;19.292;2022-12-18T12:51:43;42.20;;;19.80;;
69126;SDS011;56688;50.234;19.292;2022-12-18T12:54:16;41.90;;;19.80;;
69126;SDS011;56688;50.234;19.292;2022-12-18T12:56:50;39.80;;;19.50;;
69126;SDS011;56688;50.234;19.292;2022-12-18T12:59:28;39.70;;;18.70;;
69126;SDS011;56688;50.234;19.292;2022-12-18T13:02:14;40.50;;;19.20;;
69126;SDS011;56688;50.234;19.292;2022-12-18T13:04:50;39.60;;;18.90;;
69126;SDS011;56688;50.234;19.292;2022-12-18T13:07:29;38.40;;;18.50;;
69126;SDS011;56688;50.234;19.292;2022-12-18T13:18:18;41.50;;;19.10;;
69126;SDS011;56688;50.234;19.292;2022-12-18T13:20:47;38.30;;;18.70;;
69126;SDS011;56688;50.234;19.292;2022-12-18T13:25:54;36.20;;;17.90;;
69126;SDS011;56688;50.234;19.292;2022-12-18T13:31:09;40.30;;;17.10;;
69126;SDS011;56688;50.234;19.292;2022-12-18T13:33:38;41.20;;;21.30;;
69126;SDS011;56688;50.234;19.292;2022-12-18T13:36:29;46.30;;;22.80;;
69126;SDS011;56688;50.234;19.292;2022-12-18T13:41:49;39.20;;;16.80;;
69126;SDS011;56688;50.234;19.292;2022-12-18T13:53:04;38.10;;;15.50;;
69126;SDS011;56688;50.234;19.292;2022-12-18T13:55:31;38.70;;;16.50;;
69126;SDS011;56688;50.234;19.292;2022-12-18T13:58:05;39.70;;;16.70;;
69126;SDS011;56688;50.234;19.292;2022-12-18T14:00:33;36.50;;;16.00;;
69126;SDS011;56688;50.234;19.292;2022-12-18T14:03:00;41.60;;;16.70;;
69126;SDS011;56688;50.234;19.292;2022-12-18T14:05:29;42.50;;;16.20;;
69126;SDS011;56688;50.234;19.292;2022-12-18T14:08:00;45.50;;;16.20;;
69126;SDS011;56688;50.234;19.292;2022-12-18T14:10:32;41.30;;;16.90;;
69126;SDS011;56688;50.234;19.292;2022-12-18T14:13:21;46.00;;;17.00;;
69126;SDS011;56688;50.234;19.292;2022-12-18T14:15:54;48.40;;;17.80;;
69126;SDS011;56688;50.234;19.292;2022-12-18T14:21:40;42.20;;;16.50;;
69126;SDS011;56688;50.234;19.292;2022-12-18T14:24:14;47.60;;;17.50;;
69126;SDS011;56688;50.234;19.292;2022-12-18T14:26:45;45.90;;;17.20;;
69126;SDS011;56688;50.234;19.292;2022-12-18T14:29:20;41.20;;;15.60;;
69126;SDS011;56688;50.234;19.292;2022-12-18T14:34:37;47.80;;;15.40;;
69126;SDS011;56688;50.234;19.292;2022-12-18T14:37:04;46.10;;;16.40;;
69126;SDS011;56688;50.234;19.292;2022-12-18T14:39:31;46.70;;;17.20;;
69126;SDS011;56688;50.234;19.292;2022-12-18T14:41:58;40.80;;;15.20;;
69126;SDS011;56688;50.234;19.292;2022-12-18T14:44:25;39.80;;;15.50;;
69126;SDS011;56688;50.234;19.292;2022-12-18T14:47:04;43.90;;;15.60;;
69126;SDS011;56688;50.234;19.292;2022-12-18T14:49:32;43.00;;;14.90;;
69126;SDS011;56688;50.234;19.292;2022-12-18T14:52:01;40.90;;;15.30;;
69126;SDS011;56688;50.234;19.292;2022-12-18T14:54:33;39.30;;;13.90;;
69126;SDS011;56688;50.234;19.292;2022-12-18T14:57:05;35.70;;;12.60;;
69126;SDS011;56688;50.234;19.292;2022-12-18T14:59:43;35.30;;;13.20;;
69126;SDS011;56688;50.234;19.292;2022-12-18T15:02:15;36.40;;;13.60;;
69126;SDS011;56688;50.234;19.292;2022-12-18T15:04:59;41.20;;;13.50;;
69126;SDS011;56688;50.234;19.292;2022-12-18T15:07:38;41.00;;;14.60;;
69126;SDS011;56688;50.234;19.292;2022-12-18T15:18:00;44.50;;;17.10;;
69126;SDS011;56688;50.234;19.292;2022-12-18T15:20:30;50.20;;;17.70;;
69126;SDS011;56688;50.234;19.292;2022-12-18T15:22:59;42.40;;;15.50;;
69126;SDS011;56688;50.234;19.292;2022-12-18T15:25:29;40.70;;;15.20;;
69126;SDS011;56688;50.234;19.292;2022-12-18T15:28:00;48.00;;;15.20;;
69126;SDS011;56688;50.234;19.292;2022-12-18T15:30:27;45.20;;;14.50;;
69126;SDS011;56688;50.234;19.292;2022-12-18T15:36:01;34.40;;;12.30;;
69126;SDS011;56688;50.234;19.292;2022-12-18T15:38:35;35.10;;;12.50;;
69126;SDS011;56688;50.234;19.292;2022-12-18T15:41:02;36.40;;;12.10;;
69126;SDS011;56688;50.234;19.292;2022-12-18T15:43:29;35.20;;;12.50;;
69126;SDS011;56688;50.234;19.292;2022-12-18T15:46:08;40.70;;;14.00;;
69126;SDS011;56688;50.234;19.292;2022-12-18T15:48:40;45.60;;;13.80;;
69126;SDS011;56688;50.234;19.292;2022-12-18T15:51:11;37.30;;;12.20;;
69126;SDS011;56688;50.234;19.292;2022-12-18T15:53:43;39.80;;;12.00;;
69126;SDS011;56688;50.234;19.292;2022-12-18T15:56:12;36.60;;;13.20;;
69126;SDS011;56688;50.234;19.292;2022-12-18T15:58:55;40.40;;;12.80;;
69126;SDS011;56688;50.234;19.292;2022-12-18T16:01:23;34.60;;;12.40;;
69126;SDS011;56688;50.234;19.292;2022-12-18T16:03:53;37.80;;;12.70;;
69126;SDS011;56688;50.234;19.292;2022-12-18T16:06:21;33.50;;;12.10;;
69126;SDS011;56688;50.234;19.292;2022-12-18T16:08:48;38.70;;;11.90;;
69126;SDS011;56688;50.234;19.292;2022-12-18T16:11:20;35.30;;;12.40;;
69126;SDS011;56688;50.234;19.292;2022-12-18T16:16:32;31.10;;;10.90;;
69126;SDS011;56688;50.234;19.292;2022-12-18T16:18:58;30.00;;;11.30;;
69126;SDS011;56688;50.234;19.292;2022-12-18T16:21:27;34.20;;;11.40;;
69126;SDS011;56688;50.234;19.292;2022-12-18T16:23:59;28.40;;;10.60;;
69126;SDS011;56688;50.234;19.292;2022-12-18T16:26:26;31.40;;;11.20;;
69126;SDS011;56688;50.234;19.292;2022-12-18T16:28:53;32.80;;;11.90;;
69126;SDS011;56688;50.234;19.292;2022-12-18T16:31:20;42.80;;;11.80;;
69126;SDS011;56688;50.234;19.292;2022-12-18T16:33:47;39.80;;;12.50;;
69126;SDS011;56688;50.234;19.292;2022-12-18T16:36:14;33.50;;;11.90;;
69126;SDS011;56688;50.234;19.292;2022-12-18T16:38:41;32.50;;;12.90;;
69126;SDS011;56688;50.234;19.292;2022-12-18T16:41:17;39.10;;;12.50;;
69126;SDS011;56688;50.234;19.292;2022-12-18T16:44:00;38.20;;;12.30;;
69126;SDS011;56688;50.234;19.292;2022-12-18T16:46:28;36.10;;;11.50;;
69126;SDS011;56688;50.234;19.292;2022-12-18T16:48:57;25.50;;;10.20;;
69126;SDS011;56688;50.234;19.292;2022-12-18T16:51:25;40.40;;;15.50;;
69126;SDS011;56688;50.234;19.292;2022-12-18T16:53:53;54.80;;;18.20;;
69126;SDS011;56688;50.234;19.292;2022-12-18T16:59:04;50.50;;;19.40;;
69126;SDS011;56688;50.234;19.292;2022-12-18T17:01:31;47.00;;;18.10;;
69126;SDS011;56688;50.234;19.292;2022-12-18T17:03:59;46.20;;;17.20;;
69126;SDS011;56688;50.234;19.292;2022-12-18T17:06:29;54.60;;;20.90;;
69126;SDS011;56688;50.234;19.292;2022-12-18T17:08:57;56.10;;;22.10;;
69126;SDS011;56688;50.234;19.292;2022-12-18T17:11:26;70.10;;;25.90;;
69126;SDS011;56688;50.234;19.292;2022-12-18T17:13:54;64.10;;;24.10;;
69126;SDS011;56688;50.234;19.292;2022-12-18T17:16:23;55.00;;;23.00;;
69126;SDS011;56688;50.234;19.292;2022-12-18T17:21:50;56.30;;;21.50;;
69126;SDS011;56688;50.234;19.292;2022-12-18T17:24:18;47.40;;;20.40;;